createdAt,value
2023-04-01T00:00:08.542Z,1.45
2023-04-01T00:02:36.717Z,1.45
2023-04-01T00:05:06.714Z,1.88
2023-04-01T00:07:34.852Z,1.17
2023-04-01T00:10:04.498Z,1.67
2023-04-01T00:12:33.807Z,1.55
2023-04-01T00:15:01.929Z,1.50
2023-04-01T00:17:30.433Z,1.77
2023-04-01T00:19:58.623Z,2.08
2023-04-01T00:22:27.457Z,1.25
2023-04-01T00:24:55.768Z,1.63
2023-04-01T00:27:25.848Z,1.65
2023-04-01T00:29:53.875Z,1.40
2023-04-01T00:32:21.969Z,1.63
2023-04-01T00:34:52.797Z,1.38
2023-04-01T00:37:22.062Z,1.20
2023-04-01T00:39:50.162Z,1.40
2023-04-01T00:42:19.029Z,1.60
2023-04-01T00:44:53.012Z,1.50
2023-04-01T00:47:21.886Z,1.50
2023-04-01T00:49:55.194Z,1.67
2023-04-01T00:52:26.325Z,1.42
2023-04-01T00:54:59.395Z,1.85
2023-04-01T00:57:33.146Z,1.35
2023-04-01T01:00:03.143Z,1.73
2023-04-01T01:02:33.170Z,1.15
2023-04-01T01:05:01.409Z,1.80
2023-04-01T01:07:36.373Z,1.50
2023-04-01T01:10:11.682Z,1.38
2023-04-01T01:12:47.020Z,1.20
2023-04-01T01:15:22.635Z,1.10
2023-04-01T01:17:58.994Z,1.25
2023-04-01T01:20:46.587Z,1.23
2023-04-01T01:23:45.778Z,1.17
2023-04-01T01:26:37.698Z,1.10
2023-04-01T01:29:18.914Z,1.10
2023-04-01T01:31:58.508Z,1.27
2023-04-01T01:34:38.714Z,1.35
2023-04-01T01:39:41.866Z,1.38
2023-04-01T01:42:15.619Z,1.50
2023-04-01T01:44:46.701Z,1.55
2023-04-01T01:47:16.586Z,1.60
2023-04-01T01:49:47.173Z,1.58
2023-04-01T01:52:17.719Z,1.60
2023-04-01T01:54:50.635Z,1.52
2023-04-01T01:57:22.071Z,1.73
2023-04-01T01:59:52.926Z,1.48
2023-04-01T02:02:22.111Z,1.67
2023-04-01T02:04:51.713Z,1.40
2023-04-01T02:07:27.734Z,1.55
2023-04-01T02:09:56.513Z,2.00
2023-04-01T02:12:26.091Z,1.80
2023-04-01T02:14:57.468Z,1.63
2023-04-01T02:17:28.986Z,1.90
2023-04-01T02:20:01.314Z,1.85
2023-04-01T02:22:33.944Z,1.77
2023-04-01T02:25:08.317Z,1.70
2023-04-01T02:27:36.647Z,1.85
2023-04-01T02:30:05.621Z,1.40
2023-04-01T02:32:35.837Z,1.75
2023-04-01T02:35:06.978Z,1.50
2023-04-01T02:37:38.551Z,1.50
2023-04-01T02:40:10.644Z,1.42
2023-04-01T02:42:38.757Z,1.80
2023-04-01T02:45:08.353Z,1.83
2023-04-01T02:47:36.702Z,1.60
2023-04-01T02:50:05.515Z,1.50
2023-04-01T02:52:33.683Z,1.70
2023-04-01T02:55:03.969Z,1.33
2023-04-01T02:57:32.134Z,1.08
2023-04-01T03:00:00.356Z,1.42
2023-04-01T03:02:28.579Z,1.20
2023-04-01T03:04:56.649Z,1.33
2023-04-01T03:07:24.759Z,1.30
2023-04-01T03:09:52.792Z,1.13
2023-04-01T03:12:22.354Z,1.20
2023-04-01T03:14:50.424Z,1.20
2023-04-01T03:17:18.443Z,1.17
2023-04-01T03:19:46.437Z,1.30
2023-04-01T03:22:14.476Z,1.50
2023-04-01T03:24:42.768Z,1.42
2023-04-01T03:27:12.161Z,1.48
2023-04-01T03:29:41.687Z,1.67
2023-04-01T03:32:09.896Z,1.48
2023-04-01T03:34:37.980Z,1.50
2023-04-01T03:37:06.918Z,1.40
2023-04-01T03:39:34.975Z,1.45
2023-04-01T03:42:03.272Z,1.38
2023-04-01T03:44:33.705Z,1.25
2023-04-01T03:47:03.676Z,1.48
2023-04-01T03:49:33.188Z,1.35
2023-04-01T03:52:01.230Z,1.08
2023-04-01T03:54:29.312Z,1.27
2023-04-01T03:56:59.243Z,1.08
2023-04-01T03:59:27.400Z,1.02
2023-04-01T04:01:55.491Z,1.75
2023-04-01T04:04:25.012Z,1.10
2023-04-01T04:06:53.194Z,1.40
2023-04-01T04:09:21.593Z,1.30
2023-04-01T04:11:51.538Z,1.13
2023-04-01T04:14:19.773Z,1.38
2023-04-01T04:16:47.855Z,1.33
2023-04-01T04:19:15.959Z,1.15
2023-04-01T04:21:45.566Z,1.15
2023-04-01T04:24:13.597Z,1.17
2023-04-01T04:26:41.764Z,1.10
2023-04-01T04:29:09.801Z,0.80
2023-04-01T04:31:38.132Z,1.20
2023-04-01T04:34:06.236Z,0.90
2023-04-01T04:36:34.352Z,1.40
2023-04-01T04:39:04.390Z,1.08
2023-04-01T04:41:32.553Z,1.40
2023-04-01T04:44:00.728Z,1.30
2023-04-01T04:46:28.783Z,1.10
2023-04-01T04:48:57.048Z,1.13
2023-04-01T04:51:25.194Z,1.25
2023-04-01T04:53:53.401Z,1.10
2023-04-01T04:56:26.388Z,1.13
2023-04-01T04:58:54.764Z,0.90
2023-04-01T05:01:23.072Z,1.05
2023-04-01T05:03:51.368Z,0.88
2023-04-01T05:06:22.246Z,1.00
2023-04-01T05:08:51.539Z,1.10
2023-04-01T05:11:21.554Z,1.08
2023-04-01T05:13:51.415Z,1.40
2023-04-01T05:16:21.615Z,1.42
2023-04-01T05:21:18.149Z,1.60
2023-04-01T05:23:46.284Z,1.42
2023-04-01T05:26:16.614Z,1.90
2023-04-01T05:28:44.985Z,1.52
2023-04-01T05:31:14.972Z,1.40
2023-04-01T05:33:43.297Z,1.63
2023-04-01T05:36:13.906Z,2.55
2023-04-01T05:38:43.433Z,2.05
2023-04-01T05:41:11.690Z,2.28
2023-04-01T05:43:40.273Z,2.28
2023-04-01T05:46:08.809Z,2.13
2023-04-01T05:48:38.275Z,2.50
2023-04-01T05:51:07.279Z,3.35
2023-04-01T05:53:35.399Z,2.42
2023-04-01T05:56:07.904Z,1.88
2023-04-01T05:58:35.986Z,3.10
2023-04-01T06:01:10.415Z,2.40
2023-04-01T06:03:42.381Z,3.25
2023-04-01T06:06:16.862Z,2.25
2023-04-01T06:08:45.574Z,2.47
2023-04-01T06:11:28.566Z,2.40
2023-04-01T06:14:13.971Z,2.22
2023-04-01T06:16:56.677Z,1.80
2023-04-01T06:19:38.838Z,1.45
2023-04-01T06:22:36.735Z,2.05
2023-04-01T06:25:27.030Z,1.30
2023-04-01T06:28:12.284Z,1.50
2023-04-01T06:30:44.675Z,1.63
2023-04-01T06:33:43.702Z,1.58
2023-04-01T06:36:45.430Z,1.52
2023-04-01T06:39:25.241Z,2.50
2023-04-01T06:42:17.373Z,2.15
2023-04-01T06:44:56.577Z,1.27
2023-04-01T06:47:39.493Z,1.73
2023-04-01T06:50:19.692Z,2.30
2023-04-01T06:55:34.568Z,2.25
2023-04-01T06:58:07.208Z,3.00
2023-04-01T07:00:38.498Z,1.50
2023-04-01T07:03:18.791Z,0.93
2023-04-01T07:05:47.381Z,1.65
2023-04-01T07:08:23.340Z,1.42
2023-04-01T07:10:57.953Z,2.08
2023-04-01T07:13:31.420Z,2.78
2023-04-01T07:16:16.528Z,1.17
2023-04-01T07:18:49.907Z,1.50
2023-04-01T07:21:26.082Z,1.65
2023-04-01T07:23:59.050Z,1.45
2023-04-01T07:26:27.843Z,2.17
2023-04-01T07:28:56.748Z,1.48
2023-04-01T07:31:41.720Z,1.48
2023-04-01T07:34:19.730Z,1.45
2023-04-01T07:36:56.143Z,1.58
2023-04-01T07:39:40.114Z,1.20
2023-04-01T07:42:15.372Z,1.23
2023-04-01T07:44:53.233Z,1.02
2023-04-01T07:47:35.289Z,1.13
2023-04-01T07:50:13.744Z,0.80
2023-04-01T07:52:51.720Z,1.27
2023-04-01T07:55:26.157Z,1.00
2023-04-01T07:58:00.990Z,1.50
2023-04-01T08:00:35.822Z,0.88
2023-04-01T08:03:27.351Z,1.05
2023-04-01T08:05:59.403Z,1.80
2023-04-01T08:08:38.431Z,1.75
2023-04-01T08:11:15.942Z,3.33
2023-04-01T08:13:50.387Z,2.03
2023-04-01T08:16:25.539Z,1.13
2023-04-01T08:19:06.962Z,1.17
2023-04-01T08:21:43.434Z,1.00
2023-04-01T08:24:24.751Z,1.63
2023-04-01T08:26:58.437Z,1.30
2023-04-01T08:29:33.467Z,1.15
2023-04-01T08:32:08.294Z,1.23
2023-04-01T08:34:39.930Z,1.05
2023-04-01T08:37:12.833Z,1.70
2023-04-01T08:39:46.725Z,0.90
2023-04-01T08:42:44.032Z,1.27
2023-04-01T08:45:24.875Z,1.40
2023-04-01T08:48:10.632Z,1.17
2023-04-01T08:50:50.959Z,0.98
2023-04-01T08:53:30.140Z,2.10
2023-04-01T08:56:11.665Z,1.20
2023-04-01T08:59:02.117Z,0.88
2023-04-01T09:01:54.521Z,1.10
2023-04-01T09:04:35.592Z,1.52
2023-04-01T09:07:23.484Z,0.98
2023-04-01T09:10:23.005Z,0.90
2023-04-01T09:13:01.077Z,0.68
2023-04-01T09:15:59.690Z,1.00
2023-04-01T09:18:48.791Z,0.65
2023-04-01T09:21:48.799Z,1.52
2023-04-01T09:24:28.963Z,0.85
2023-04-01T09:27:10.292Z,1.13
2023-04-01T09:30:16.692Z,1.15
2023-04-01T09:33:21.545Z,0.90
2023-04-01T09:35:53.571Z,0.88
2023-04-01T09:38:31.322Z,0.95
2023-04-01T09:41:05.006Z,0.93
2023-04-01T09:43:50.678Z,1.27
2023-04-01T09:46:28.896Z,0.77
2023-04-01T09:49:33.361Z,1.33
2023-04-01T09:52:18.500Z,0.70
2023-04-01T09:55:03.252Z,0.60
2023-04-01T09:57:56.474Z,1.20
2023-04-01T10:00:48.580Z,0.45
2023-04-01T10:03:55.769Z,1.20
2023-04-01T10:07:17.413Z,0.93
2023-04-01T10:10:36.300Z,0.68
2023-04-01T10:13:29.304Z,0.77
2023-04-01T10:16:25.288Z,0.80
2023-04-01T10:19:19.271Z,0.52
2023-04-01T10:22:18.784Z,0.38
2023-04-01T10:25:17.352Z,0.45
2023-04-01T10:28:30.162Z,0.57
2023-04-01T10:31:30.873Z,0.40
2023-04-01T10:34:31.089Z,0.88
2023-04-01T10:40:04.650Z,0.30
2023-04-01T10:43:14.114Z,0.50
2023-04-01T10:46:09.890Z,0.40
2023-04-01T10:49:27.389Z,0.50
2023-04-01T10:52:36.183Z,0.38
2023-04-01T10:55:32.732Z,0.57
2023-04-01T10:58:34.436Z,0.35
2023-04-01T11:01:36.769Z,0.40
2023-04-01T11:04:42.367Z,0.32
2023-04-01T11:08:06.021Z,0.50
2023-04-01T11:11:10.480Z,0.60
2023-04-01T11:14:27.793Z,0.43
2023-04-01T11:17:29.580Z,0.85
2023-04-01T11:20:57.447Z,1.05
2023-04-01T11:24:01.800Z,0.70
2023-04-01T11:26:58.369Z,0.50
2023-04-01T11:29:59.682Z,0.68
2023-04-01T11:33:02.905Z,0.52
2023-04-01T11:36:17.531Z,0.85
2023-04-01T11:38:59.001Z,0.90
2023-04-01T11:41:37.197Z,0.60
2023-04-01T11:44:20.516Z,0.50
2023-04-01T11:47:14.518Z,0.50
2023-04-01T11:49:57.231Z,0.70
2023-04-01T11:52:43.015Z,0.50
2023-04-01T11:55:47.018Z,0.47
2023-04-01T11:58:34.119Z,0.60
2023-04-01T12:01:26.764Z,0.30
2023-04-01T12:04:29.697Z,0.57
2023-04-01T12:07:15.476Z,0.40
2023-04-01T12:09:51.875Z,0.65
2023-04-01T12:12:31.969Z,0.40
2023-04-01T12:15:15.106Z,0.50
2023-04-01T12:17:53.081Z,0.50
